createdAt,value
2023-04-09T00:02:35.834Z,2.88
2023-04-09T00:05:40.330Z,2.95
2023-04-09T00:08:43.103Z,2.92
2023-04-09T00:11:46.208Z,2.92
2023-04-09T00:14:48.832Z,2.86
2023-04-09T00:17:52.427Z,2.76
2023-04-09T00:20:55.336Z,2.74
2023-04-09T00:23:58.452Z,2.74
2023-04-09T00:27:01.109Z,2.75
2023-04-09T00:30:04.477Z,2.80
2023-04-09T00:33:07.512Z,2.74
2023-04-09T00:36:10.408Z,2.66
2023-04-09T00:39:13.132Z,2.77
2023-04-09T00:42:16.587Z,2.85
2023-04-09T00:45:19.212Z,2.61
2023-04-09T00:48:22.808Z,2.58
2023-04-09T00:51:26.457Z,2.76
2023-04-09T00:54:29.424Z,2.70
2023-04-09T00:57:32.545Z,2.64
2023-04-09T01:00:36.150Z,2.67
2023-04-09T01:03:39.348Z,2.67
2023-04-09T01:06:55.977Z,2.60
2023-04-09T01:10:24.332Z,2.60
2023-04-09T01:13:55.438Z,2.58
2023-04-09T01:17:06.153Z,2.58
2023-04-09T01:20:14.484Z,2.58
2023-04-09T01:23:37.540Z,2.58
2023-04-09T01:27:05.440Z,2.52
2023-04-09T01:30:10.649Z,2.52
2023-04-09T01:33:16.683Z,2.50
2023-04-09T01:36:20.860Z,2.44
2023-04-09T01:39:24.117Z,2.52
2023-04-09T01:42:29.110Z,2.56
2023-04-09T01:45:34.017Z,2.57
2023-04-09T01:48:38.105Z,2.68
2023-04-09T01:51:41.651Z,2.64
2023-04-09T01:54:44.325Z,2.70
2023-04-09T01:57:47.282Z,2.65
2023-04-09T02:00:54.729Z,2.65
2023-04-09T02:04:02.616Z,2.75
2023-04-09T02:07:11.311Z,2.92
2023-04-09T02:10:17.366Z,2.80
2023-04-09T02:13:21.375Z,2.73
2023-04-09T02:16:25.857Z,2.76
2023-04-09T02:19:46.093Z,2.82
2023-04-09T02:22:49.040Z,2.85
2023-04-09T02:25:53.689Z,2.80
2023-04-09T02:28:56.425Z,2.79
2023-04-09T02:31:59.607Z,2.84
2023-04-09T02:35:02.295Z,2.85
2023-04-09T02:38:05.327Z,2.90
2023-04-09T02:41:08.346Z,2.90
2023-04-09T02:44:11.966Z,2.90
2023-04-09T02:47:14.545Z,2.89
2023-04-09T02:50:19.092Z,2.87
2023-04-09T02:53:22.040Z,2.87
2023-04-09T02:56:24.996Z,2.93
2023-04-09T02:59:27.682Z,2.79
2023-04-09T03:02:31.156Z,2.82
2023-04-09T03:05:33.953Z,2.99
2023-04-09T03:08:37.122Z,2.92
2023-04-09T03:11:46.848Z,2.90
2023-04-09T03:14:50.189Z,2.95
2023-04-09T03:17:53.099Z,2.95
2023-04-09T03:20:57.480Z,2.95
2023-04-09T03:24:02.273Z,2.99
2023-04-09T03:27:05.504Z,2.95
2023-04-09T03:30:08.712Z,2.97
2023-04-09T03:33:12.206Z,2.97
2023-04-09T03:36:18.015Z,2.80
2023-04-09T03:39:21.744Z,2.90
2023-04-09T03:42:24.823Z,3.06
2023-04-09T03:45:29.404Z,3.04
2023-04-09T03:48:42.639Z,3.07
2023-04-09T03:51:45.952Z,2.94
2023-04-09T03:54:49.099Z,2.93
2023-04-09T03:57:52.344Z,2.95
2023-04-09T04:00:56.024Z,2.94
2023-04-09T04:03:59.796Z,2.93
2023-04-09T04:07:04.143Z,2.84
2023-04-09T04:10:07.786Z,2.90
2023-04-09T04:13:11.161Z,3.02
2023-04-09T04:16:14.438Z,2.99
2023-04-09T04:19:17.575Z,3.02
2023-04-09T04:22:21.027Z,3.03
2023-04-09T04:25:25.982Z,3.10
2023-04-09T04:28:30.242Z,3.20
2023-04-09T04:31:33.329Z,2.95
2023-04-09T04:34:36.997Z,2.90
2023-04-09T04:37:43.566Z,2.94
2023-04-09T04:40:57.880Z,2.98
2023-04-09T04:44:00.986Z,3.03
2023-04-09T04:47:03.909Z,3.22
2023-04-09T04:50:07.669Z,3.22
2023-04-09T04:53:16.269Z,3.25
2023-04-09T04:56:19.288Z,2.96
2023-04-09T04:59:22.936Z,2.97
2023-04-09T05:02:29.636Z,3.11
2023-04-09T05:05:36.068Z,3.22
2023-04-09T05:08:38.858Z,3.26
2023-04-09T05:11:41.849Z,3.29
2023-04-09T05:14:45.010Z,3.38
2023-04-09T05:17:48.206Z,3.40
2023-04-09T05:20:51.668Z,3.51
2023-04-09T05:23:54.801Z,3.54
2023-04-09T05:26:57.710Z,3.58
2023-04-09T05:30:01.416Z,3.80
2023-04-09T05:33:06.511Z,3.68
2023-04-09T05:36:15.941Z,3.69
2023-04-09T05:39:18.694Z,3.80
2023-04-09T05:42:22.323Z,3.73
2023-04-09T05:45:25.911Z,3.85
2023-04-09T05:48:28.956Z,3.95
2023-04-09T05:51:32.767Z,4.01
2023-04-09T05:54:36.553Z,4.09
2023-04-09T05:57:39.665Z,4.10
2023-04-09T06:00:42.848Z,4.12
2023-04-09T06:03:46.197Z,4.05
2023-04-09T06:06:49.150Z,4.05
2023-04-09T06:09:52.151Z,4.01
2023-04-09T06:12:55.109Z,4.32
2023-04-09T06:15:58.167Z,4.33
2023-04-09T06:19:00.816Z,4.39
2023-04-09T06:22:05.742Z,4.46
2023-04-09T06:25:08.651Z,4.71
2023-04-09T06:28:11.672Z,4.77
2023-04-09T06:31:14.613Z,4.88
2023-04-09T06:34:17.644Z,5.09
2023-04-09T06:37:20.389Z,5.17
2023-04-09T06:40:23.605Z,5.50
2023-04-09T06:43:26.240Z,5.61
2023-04-09T06:46:29.559Z,5.53
2023-04-09T06:49:32.207Z,5.79
2023-04-09T06:52:35.421Z,7.27
2023-04-09T06:55:37.997Z,8.51
2023-04-09T06:58:41.034Z,9.96
2023-04-09T07:01:43.895Z,10.61
2023-04-09T07:04:47.851Z,11.21
2023-04-09T07:07:50.729Z,11.02
2023-04-09T07:10:53.703Z,11.41
2023-04-09T07:13:56.910Z,11.63
2023-04-09T07:16:59.993Z,9.86
2023-04-09T07:20:02.720Z,8.65
2023-04-09T07:23:05.866Z,9.56
2023-04-09T07:26:08.742Z,9.99
2023-04-09T07:29:11.940Z,9.13
2023-04-09T07:32:15.988Z,9.93
2023-04-09T07:35:18.965Z,9.64
2023-04-09T07:38:21.664Z,9.72
2023-04-09T07:41:24.558Z,9.43
2023-04-09T07:44:28.434Z,9.05
2023-04-09T07:47:31.979Z,9.13
2023-04-09T07:50:36.395Z,8.33
2023-04-09T07:53:39.555Z,8.19
2023-04-09T07:56:42.135Z,7.79
2023-04-09T07:59:45.228Z,7.21
2023-04-09T08:02:48.425Z,6.93
2023-04-09T08:05:51.626Z,7.28
2023-04-09T08:08:54.587Z,7.20
2023-04-09T08:11:57.836Z,7.36
2023-04-09T08:15:03.598Z,6.65
2023-04-09T08:18:07.237Z,6.69
2023-04-09T08:21:10.587Z,6.65
2023-04-09T08:24:13.480Z,6.43
2023-04-09T08:27:16.142Z,6.40
2023-04-09T08:30:19.353Z,6.53
2023-04-09T08:33:22.262Z,6.38
2023-04-09T08:36:26.427Z,6.44
2023-04-09T08:39:29.149Z,6.48
2023-04-09T08:42:35.633Z,6.50
2023-04-09T08:45:41.375Z,6.38
2023-04-09T08:48:48.569Z,6.49
2023-04-09T08:51:52.171Z,6.60
2023-04-09T08:54:55.524Z,6.85
2023-04-09T08:57:58.558Z,7.13
2023-04-09T09:01:01.920Z,6.88
2023-04-09T09:04:06.703Z,7.27
2023-04-09T09:07:09.786Z,7.52
2023-04-09T09:10:12.459Z,7.40
2023-04-09T09:13:22.427Z,7.33
2023-04-09T09:16:25.162Z,7.34
2023-04-09T09:19:30.618Z,7.60
2023-04-09T09:22:54.824Z,7.68
2023-04-09T09:25:58.487Z,8.17
2023-04-09T09:29:05.763Z,8.54
2023-04-09T09:32:13.731Z,8.21
2023-04-09T09:35:16.443Z,8.62
2023-04-09T09:38:20.223Z,8.50
2023-04-09T09:41:23.876Z,8.81
2023-04-09T09:44:33.643Z,8.40
2023-04-09T09:47:37.582Z,8.46
2023-04-09T09:50:42.002Z,8.73
2023-04-09T09:53:47.140Z,9.12
2023-04-09T09:56:52.936Z,9.26
2023-04-09T10:00:04.294Z,8.48
2023-04-09T10:03:23.506Z,8.50
2023-04-09T10:06:27.743Z,9.03
2023-04-09T10:09:31.411Z,7.80
2023-04-09T10:12:34.791Z,8.75
2023-04-09T10:15:38.393Z,8.36
2023-04-09T10:18:42.727Z,8.30
2023-04-09T10:22:01.987Z,8.56
2023-04-09T10:25:06.494Z,8.63
2023-04-09T10:28:17.912Z,8.70
2023-04-09T10:31:21.048Z,8.89
2023-04-09T10:34:28.018Z,7.95
2023-04-09T10:37:31.939Z,8.34
2023-04-09T10:40:34.834Z,8.03
2023-04-09T10:43:37.954Z,8.52
2023-04-09T10:46:42.283Z,8.27
2023-04-09T10:49:45.249Z,8.52
2023-04-09T10:52:53.541Z,8.94
2023-04-09T10:55:56.590Z,9.11
2023-04-09T10:58:59.420Z,9.06
2023-04-09T18:25:34.936Z,4.78
2023-04-09T18:28:39.518Z,4.91
2023-04-09T18:31:42.546Z,4.60
2023-04-09T18:34:47.137Z,4.41
2023-04-09T18:37:49.850Z,4.31
2023-04-09T18:40:52.809Z,4.29
2023-04-09T18:43:55.605Z,4.20
2023-04-09T18:46:59.688Z,4.06
2023-04-09T18:50:02.475Z,3.94
2023-04-09T18:53:06.674Z,3.82
2023-04-09T18:56:09.497Z,3.85
2023-04-09T18:59:12.844Z,3.76
2023-04-09T19:02:15.818Z,3.62
2023-04-09T19:05:19.053Z,3.55
2023-04-09T19:08:22.417Z,3.47
2023-04-09T19:11:26.142Z,3.51
2023-04-09T19:14:29.092Z,3.40
2023-04-09T19:17:32.270Z,3.42
2023-04-09T19:20:34.969Z,3.47
2023-04-09T19:23:38.141Z,3.48
2023-04-09T19:26:41.080Z,3.41
2023-04-09T19:29:44.869Z,3.42
2023-04-09T19:32:47.627Z,3.48
2023-04-09T19:35:52.423Z,3.40
2023-04-09T19:38:55.819Z,3.27
2023-04-09T19:41:58.908Z,3.33
2023-04-09T19:45:02.017Z,3.38
2023-04-09T19:48:08.758Z,3.40
2023-04-09T19:51:18.142Z,3.39
2023-04-09T19:54:21.814Z,3.50
2023-04-09T19:57:26.540Z,3.44
2023-04-09T20:00:29.758Z,3.54
2023-04-09T20:03:33.445Z,3.46
2023-04-09T20:06:36.080Z,3.33
2023-04-09T20:09:42.522Z,3.46
2023-04-09T20:12:50.091Z,3.58
2023-04-09T20:15:52.976Z,3.44
2023-04-09T20:18:55.940Z,3.41
2023-04-09T20:22:00.337Z,3.38
2023-04-09T20:25:02.955Z,3.35
